Time;durP1;ratioP1;P1;durP2;ratioP2;P2;SDS_P1;SDS_P2;PMS_P1;PMS_P2;Temp;Humidity;BMP_temperature;BMP_pressure;BME280_temperature;BME280_humidity;BME280_pressure;Samples;Min_cycle;Max_cycle;Signal;HPM_P1;HPM_P2
2022/02/05 00:02:46;;;;;;;55.55;24.45;;;;;;;1.16;69.79;99967.19;5053328;28;20043;-50
2022/02/05 00:05:15;;;;;;;59.45;26.33;;;;;;;1.28;69.90;99978.41;5053332;28;20025;-49
2022/02/05 00:07:47;;;;;;;51.35;24.30;;;;;;;1.20;68.85;99983.47;5053177;28;20025;-48
2022/02/05 00:10:46;;;;;;;52.22;23.13;;;;;;;0.94;70.59;99982.22;5052866;28;20052;-51
2022/02/05 00:40:16;;;;;;;40.35;20.80;;;;;;;1.00;68.84;99980.03;5053228;28;20070;-51
2022/02/05 00:42:42;;;;;;;40.60;20.92;;;;;;;1.07;69.16;99971.47;5052552;28;20096;-52
2022/02/05 00:45:11;;;;;;;41.42;20.23;;;;;;;0.96;68.93;99975.03;5052786;28;20033;-53
2022/02/05 00:47:39;;;;;;;43.80;21.05;;;;;;;0.80;69.03;99985.25;5052008;28;20024;-50
2022/02/05 00:50:09;;;;;;;44.60;20.95;;;;;;;0.95;69.19;99973.41;5052341;28;20108;-51
2022/02/05 00:52:35;;;;;;;40.22;20.30;;;;;;;0.83;68.68;99971.84;5052266;28;20025;-52
2022/02/05 00:55:10;;;;;;;37.55;18.60;;;;;;;0.80;68.72;99966.91;5052678;28;20025;-52
2022/02/05 00:57:45;;;;;;;37.78;18.75;;;;;;;0.86;68.43;99957.66;5052617;28;20076;-49
2022/02/05 01:00:15;;;;;;;38.42;18.50;;;;;;;0.91;69.23;99958.06;5052496;28;20032;-50
2022/02/05 01:02:40;;;;;;;37.85;19.02;;;;;;;1.01;69.53;99966.78;5052579;28;20049;-49
2022/02/05 01:05:06;;;;;;;37.15;18.30;;;;;;;1.14;68.31;99962.09;5052733;28;20473;-49
2022/02/05 01:07:32;;;;;;;38.92;17.20;;;;;;;0.76;68.67;99949.75;5052269;28;20032;-49
2022/02/05 01:09:57;;;;;;;34.67;17.10;;;;;;;0.69;69.05;99952.09;5051792;28;20053;-50
2022/02/05 01:12:25;;;;;;;30.67;15.13;;;;;;;0.83;68.43;99942.22;5052321;28;20029;-49
2022/02/05 01:14:54;;;;;;;31.10;16.13;;;;;;;0.77;68.53;99943.56;5052209;28;20033;-52
2022/02/05 01:17:27;;;;;;;33.00;15.77;;;;;;;0.84;68.20;99938.59;5052200;28;20029;-51
2022/02/05 01:22:40;;;;;;;28.58;14.95;;;;;;;1.07;68.53;99931.34;5052212;28;20036;-52
2022/02/05 01:25:06;;;;;;;28.80;14.65;;;;;;;1.10;67.50;99931.88;5037900;28;20604;-51
2022/02/05 01:27:45;;;;;;;30.85;15.07;;;;;;;0.85;67.84;99932.41;5032152;28;20116;-50
2022/02/05 01:30:23;;;;;;;35.35;17.27;;;;;;;0.88;68.44;99929.53;5032339;28;20030;-52
2022/02/05 01:55:06;;;;;;;38.10;17.33;;;;;;;0.42;68.77;99926.53;5029514;28;20061;-52
2022/02/05 02:05:38;;;;;;;36.10;16.98;;;;;;;0.32;71.01;99934.34;5019160;28;20106;-52
2022/02/05 02:13:56;;;;;;;41.50;19.17;;;;;;;0.46;70.06;99943.66;5051120;28;20119;-52
2022/02/05 02:21:46;;;;;;;37.30;17.00;;;;;;;0.49;69.90;99926.81;5051176;28;20098;-50
2022/02/05 02:24:31;;;;;;;35.35;17.52;;;;;;;0.26;70.23;99934.88;5050734;28;20031;-51
2022/02/05 02:29:50;;;;;;;35.35;16.92;;;;;;;-0.08;71.33;99934.31;5051056;28;20104;-52
2022/02/05 02:32:16;;;;;;;39.28;18.25;;;;;;;0.00;71.18;99934.53;5050828;28;20485;-51
2022/02/05 02:34:47;;;;;;;37.05;17.23;;;;;;;0.12;71.24;99943.94;5049581;28;20044;-52
2022/02/05 02:37:21;;;;;;;33.67;17.55;;;;;;;-0.02;70.86;99941.66;5051016;28;20047;-51
2022/02/05 02:42:12;;;;;;;38.58;18.05;;;;;;;0.27;71.09;99946.22;5050575;28;20033;-49
2022/02/05 02:44:38;;;;;;;38.92;17.98;;;;;;;0.26;69.97;99945.34;5050622;28;20021;-51
2022/02/05 02:47:03;;;;;;;39.97;17.20;;;;;;;0.37;70.35;99934.78;5032599;28;20036;-51
2022/02/05 02:57:30;;;;;;;31.70;15.82;;;;;;;0.51;69.11;99946.66;5031492;28;20103;-51
2022/02/05 03:00:00;;;;;;;26.90;14.82;;;;;;;0.55;69.33;99952.47;5031090;28;20519;-51
2022/02/05 03:02:27;;;;;;;25.88;13.93;;;;;;;0.32;70.03;99941.38;5031201;28;20039;-51
2022/02/05 03:04:55;;;;;;;28.35;14.40;;;;;;;0.45;68.71;99951.63;5030565;28;20098;-50
2022/02/05 03:07:24;;;;;;;32.70;15.43;;;;;;;0.14;70.09;99943.81;5029548;28;20052;-51
2022/02/05 03:09:51;;;;;;;34.30;15.48;;;;;;;-0.02;70.42;99939.88;5047637;28;20056;-51
2022/02/05 03:12:17;;;;;;;36.92;15.75;;;;;;;-0.32;70.47;99913.69;5050638;28;20393;-50
2022/02/05 03:14:42;;;;;;;31.67;15.80;;;;;;;0.05;70.54;99947.19;5050649;28;20039;-51
2022/02/05 03:17:19;;;;;;;31.63;15.07;;;;;;;0.05;70.65;99944.59;5050792;28;20025;-50
2022/02/05 03:19:52;;;;;;;30.15;15.50;;;;;;;-0.02;71.35;99952.13;5049488;28;20086;-48
2022/02/05 03:22:19;;;;;;;30.77;15.65;;;;;;;-0.13;71.02;99954.81;5050516;28;20131;-51
2022/02/05 03:24:45;;;;;;;31.45;15.65;;;;;;;-0.15;70.79;99949.72;5039368;28;20386;-48
2022/02/05 03:27:12;;;;;;;32.97;16.50;;;;;;;0.07;71.00;99956.56;5030663;28;20037;-48
2022/02/05 03:29:46;;;;;;;33.00;16.58;;;;;;;0.05;71.01;99955.88;5029225;28;20131;-48
2022/02/05 03:32:12;;;;;;;38.97;17.65;;;;;;;-0.28;71.97;99960.38;5030727;28;20405;-49
2022/02/05 03:34:37;;;;;;;30.52;14.68;;;;;;;-0.32;71.98;99959.00;5030725;28;20022;-49
2022/02/05 03:37:03;;;;;;;33.05;16.15;;;;;;;-0.31;72.51;99955.41;5030871;28;20018;-51
2022/02/05 03:39:29;;;;;;;36.17;15.93;;;;;;;-0.32;72.21;99956.38;5030629;28;20180;-51
2022/02/05 03:41:54;;;;;;;29.38;14.40;;;;;;;-0.19;71.21;99953.56;5030697;28;20018;-49
2022/02/05 03:44:20;;;;;;;34.42;14.93;;;;;;;-0.20;71.12;99954.50;5030662;28;20101;-51
2022/02/05 03:46:45;;;;;;;28.50;14.68;;;;;;;-0.05;69.86;99955.00;5030612;28;20490;-50
2022/02/05 03:49:14;;;;;;;27.17;14.23;;;;;;;-0.03;70.29;99956.53;5030397;28;20025;-51
2022/02/05 03:51:40;;;;;;;25.77;13.63;;;;;;;0.09;70.02;99959.88;5030328;28;20028;-51
2022/02/05 03:54:05;;;;;;;26.50;13.48;;;;;;;-0.14;69.89;99959.22;5030386;28;20041;-51
2022/02/05 03:56:31;;;;;;;26.48;13.35;;;;;;;-0.31;71.02;99947.56;5030667;28;20482;-49
2022/02/05 03:58:56;;;;;;;26.50;13.27;;;;;;;-0.17;71.60;99941.19;5028821;28;20143;-50
2022/02/05 04:01:22;;;;;;;27.33;14.15;;;;;;;-0.21;70.62;99942.38;5030320;28;20452;-52
2022/02/05 04:03:47;;;;;;;29.80;12.88;;;;;;;-0.25;71.04;99936.59;5030297;28;20029;-50
2022/02/05 04:06:13;;;;;;;27.98;14.30;;;;;;;0.17;70.66;99935.66;5030731;28;20025;-53
2022/02/05 04:08:39;;;;;;;25.08;12.90;;;;;;;0.26;69.83;99944.53;5037562;28;20032;-51
2022/02/05 04:11:10;;;;;;;27.15;14.00;;;;;;;0.35;69.30;99941.13;5049585;28;20049;-51
2022/02/05 04:16:22;;;;;;;23.17;13.10;;;;;;;0.10;70.22;99937.19;5050361;28;20031;-49
2022/02/05 04:18:55;;;;;;;24.30;11.98;;;;;;;0.16;69.24;99942.69;5053115;28;20078;-48
2022/02/05 04:21:21;;;;;;;26.73;14.07;;;;;;;-0.06;70.27;99945.47;5054024;28;20503;-48
2022/02/05 04:23:47;;;;;;;36.25;14.98;;;;;;;-0.18;70.18;99943.91;5053724;28;20104;-49
2022/02/05 04:26:16;;;;;;;25.92;13.43;;;;;;;-0.41;71.01;99951.91;5052532;28;20478;-49
2022/02/05 04:28:42;;;;;;;29.77;14.13;;;;;;;-0.02;70.22;99955.56;5053730;28;20031;-48
2022/02/05 04:31:08;;;;;;;33.35;14.48;;;;;;;-0.20;70.33;99951.88;5053672;28;20029;-51
2022/02/05 04:33:34;;;;;;;31.90;13.45;;;;;;;-0.20;71.22;99946.66;5053728;28;20024;-49
2022/02/05 04:35:59;;;;;;;28.70;13.52;;;;;;;-0.12;71.11;99952.06;5053813;28;20029;-49
2022/02/05 04:38:26;;;;;;;26.50;13.30;;;;;;;-0.25;71.35;99948.81;5053802;28;20075;-49
2022/02/05 04:40:59;;;;;;;27.00;14.00;;;;;;;-0.35;71.20;99947.94;5053811;28;20029;-50
2022/02/05 04:46:33;;;;;;;29.02;13.52;;;;;;;-0.41;71.89;99967.59;5053614;28;20100;-48
2022/02/05 05:20:18;;;;;;;26.83;14.00;;;;;;;-0.74;73.28;99966.81;5052697;28;20074;-50
2022/02/05 05:22:43;;;;;;;26.45;13.27;;;;;;;-0.79;73.62;99975.00;5034743;28;20514;-51
2022/02/05 05:25:09;;;;;;;26.70;13.23;;;;;;;-0.95;74.05;99978.97;5038428;28;20028;-49
2022/02/05 05:27:34;;;;;;;25.63;12.77;;;;;;;-0.70;73.36;99975.22;5032443;28;20515;-51
2022/02/05 05:30:00;;;;;;;27.23;12.80;;;;;;;-0.65;72.76;99967.81;5032811;28;20021;-49
2022/02/05 05:32:26;;;;;;;27.85;12.93;;;;;;;-0.64;73.71;99972.09;5031126;28;20061;-50
2022/02/05 05:34:51;;;;;;;27.73;12.80;;;;;;;-0.58;72.97;99970.78;5032306;28;20021;-49
2022/02/05 05:37:19;;;;;;;31.33;13.85;;;;;;;-0.46;73.39;99967.97;5032304;28;20099;-48
2022/02/05 05:39:45;;;;;;;29.63;13.90;;;;;;;-0.40;73.27;99971.84;5032519;28;20036;-48
2022/02/05 05:42:16;;;;;;;25.90;11.93;;;;;;;-0.53;74.01;99969.44;5032344;28;20124;-51
2022/02/05 05:49:59;;;;;;;23.73;12.23;;;;;;;0.01;72.46;99977.22;5029826;28;20438;-52
2022/02/05 05:52:24;;;;;;;21.75;11.48;;;;;;;0.25;72.30;99974.28;5041001;28;20111;-52
2022/02/05 05:54:50;;;;;;;22.75;11.18;;;;;;;0.44;71.22;99977.00;5051652;28;20025;-52
2022/02/05 05:57:15;;;;;;;43.35;22.17;;;;;;;0.55;71.46;99978.66;5051862;28;20064;-38
2022/02/05 05:59:41;;;;;;;67.70;32.13;;;;;;;0.91;70.90;99986.91;5051364;28;20031;-38
2022/02/05 06:02:07;;;;;;;30.58;14.95;;;;;;;1.15;71.30;99982.09;5051310;28;20028;-50
2022/02/05 06:04:33;;;;;;;23.08;12.40;;;;;;;1.39;70.43;99986.13;5051480;28;20048;-50
2022/02/05 06:06:58;;;;;;;21.50;11.25;;;;;;;1.83;68.24;99985.66;5051504;28;20497;-52
2022/02/05 06:09:24;;;;;;;24.98;11.77;;;;;;;2.14;66.37;99986.28;5050984;28;20048;-37
2022/02/05 06:11:49;;;;;;;27.25;13.60;;;;;;;2.23;63.88;99982.81;5051293;28;20029;-50
2022/02/05 06:14:20;;;;;;;22.42;12.50;;;;;;;1.97;64.16;99992.28;5050839;28;20115;-50
2022/02/05 06:16:49;;;;;;;63.97;24.58;;;;;;;1.72;64.83;99978.78;5051142;28;20116;-52
2022/02/05 06:19:15;;;;;;;20.33;10.70;;;;;;;1.58;65.48;99982.66;5051032;28;20025;-52
2022/02/05 06:21:40;;;;;;;18.60;9.98;;;;;;;1.29;65.63;99987.91;5050679;28;20025;-51
2022/02/05 06:24:06;;;;;;;18.05;9.85;;;;;;;1.36;65.43;99987.22;5049087;28;20032;-51
2022/02/05 06:26:31;;;;;;;21.33;10.20;;;;;;;1.46;65.91;99994.25;5050243;28;20082;-49
2022/02/05 06:28:57;;;;;;;17.77;10.13;;;;;;;1.80;65.21;99992.00;5049991;28;20032;-48
2022/02/05 06:31:22;;;;;;;18.40;9.95;;;;;;;1.97;63.63;99987.03;5050252;28;20082;-50
2022/02/05 06:33:49;;;;;;;19.65;10.50;;;;;;;2.27;62.80;99984.16;5050777;28;20025;-50
2022/02/05 06:36:14;;;;;;;19.10;10.43;;;;;;;2.39;62.22;99992.69;5050480;28;20107;-51
2022/02/05 06:38:40;;;;;;;19.88;10.77;;;;;;;2.61;61.62;99991.50;5050190;28;20021;-51
2022/02/05 06:41:05;;;;;;;18.45;10.38;;;;;;;2.71;60.67;99994.06;5049385;28;20028;-54
2022/02/05 06:43:30;;;;;;;18.70;10.32;;;;;;;2.94;61.28;99986.59;5050283;28;20021;-50
2022/02/05 06:45:56;;;;;;;18.95;9.73;;;;;;;3.50;58.83;99989.91;5050535;28;20044;-50
2022/02/05 06:48:21;;;;;;;18.05;9.60;;;;;;;3.45;58.35;99985.13;5050602;28;20075;-50
2022/02/05 06:50:47;;;;;;;18.55;9.95;;;;;;;3.69;58.88;99991.56;5050286;28;20468;-52
2022/02/05 06:53:12;;;;;;;18.42;10.00;;;;;;;4.22;58.40;99980.06;5012718;28;20029;-51
2022/02/05 06:55:38;;;;;;;22.00;10.63;;;;;;;4.63;55.99;99985.53;5032930;28;20024;-50
2022/02/05 06:58:03;;;;;;;17.23;10.20;;;;;;;4.70;54.20;99985.69;5050289;28;20396;-50
2022/02/05 07:00:29;;;;;;;20.83;10.20;;;;;;;4.43;54.82;99986.75;5050098;28;20037;-53
2022/02/05 07:02:54;;;;;;;23.50;10.63;;;;;;;4.26;55.39;99980.56;5049913;28;20036;-51
2022/02/05 07:05:20;;;;;;;19.08;10.48;;;;;;;3.83;56.67;99977.03;5050228;28;20055;-52
2022/02/05 07:07:45;;;;;;;25.95;11.23;;;;;;;3.76;56.83;99976.00;5049607;28;20477;-51
2022/02/05 07:10:11;;;;;;;19.60;10.85;;;;;;;4.24;54.84;99975.44;5049969;28;20068;-50
2022/02/05 07:12:50;;;;;;;20.15;10.98;;;;;;;4.23;54.78;99967.72;5050233;28;20036;-51
2022/02/05 07:15:18;;;;;;;20.58;11.13;;;;;;;3.91;55.62;99967.38;5049204;28;20020;-49
2022/02/05 07:17:57;;;;;;;19.15;11.02;;;;;;;3.54;56.75;99980.75;5049214;28;20024;-48
2022/02/05 07:20:46;;;;;;;25.25;12.05;;;;;;;3.26;57.86;99972.13;5049132;28;20020;-49
2022/02/05 07:31:20;;;;;;;23.50;12.25;;;;;;;4.04;56.71;99955.59;5048616;28;20032;-48
2022/02/05 07:33:46;;;;;;;24.60;13.35;;;;;;;4.69;54.50;99965.59;5049772;28;20017;-52
2022/02/05 07:36:12;;;;;;;23.25;12.82;;;;;;;5.05;53.41;99968.00;5049798;28;20469;-51
2022/02/05 07:38:38;;;;;;;25.05;12.50;;;;;;;5.19;52.43;99963.91;5050039;28;20491;-52
2022/02/05 07:41:04;;;;;;;22.88;13.30;;;;;;;5.49;51.97;99957.16;5050274;28;20029;-51
2022/02/05 07:43:35;;;;;;;20.75;12.05;;;;;;;5.48;51.89;99964.28;5049718;28;20029;-49
2022/02/05 07:46:05;;;;;;;26.17;12.68;;;;;;;5.76;50.90;99963.91;5049880;28;20052;-53
2022/02/05 07:48:31;;;;;;;23.88;12.40;;;;;;;5.99;50.72;99957.97;5049608;28;20057;-51
2022/02/05 07:50:57;;;;;;;24.38;12.25;;;;;;;5.91;50.49;99950.84;5049725;28;20021;-50
2022/02/05 07:53:22;;;;;;;22.98;11.40;;;;;;;6.18;49.42;99957.59;5051845;28;20036;-51
2022/02/05 07:55:48;;;;;;;21.42;11.43;;;;;;;6.62;48.50;99949.16;5053466;28;20021;-51
2022/02/05 07:58:14;;;;;;;24.13;12.80;;;;;;;6.80;47.64;99956.03;5053341;28;20049;-52
2022/02/05 08:00:39;;;;;;;20.98;10.50;;;;;;;6.94;46.43;99952.63;5053138;28;20021;-52
2022/02/05 08:03:06;;;;;;;20.75;10.60;;;;;;;7.06;46.28;99942.47;5053201;28;20070;-52
2022/02/05 08:05:32;;;;;;;20.38;10.80;;;;;;;7.22;46.89;99949.47;5052854;28;20040;-50
2022/02/05 08:07:58;;;;;;;31.88;16.08;;;;;;;7.48;46.11;99954.38;5052636;28;20397;-51
2022/02/05 08:10:29;;;;;;;18.33;10.88;;;;;;;7.39;46.73;99956.28;5052364;28;20574;-51
2022/02/05 08:12:57;;;;;;;20.63;12.18;;;;;;;7.42;46.28;99952.47;5052634;28;20480;-50
2022/02/05 08:15:25;;;;;;;20.10;11.57;;;;;;;7.66;45.77;99953.28;5051155;28;20032;-49
2022/02/05 08:17:51;;;;;;;25.02;12.23;;;;;;;8.05;44.75;99950.38;5052540;28;20465;-53
2022/02/05 08:20:16;;;;;;;25.10;12.93;;;;;;;8.01;44.70;99949.97;5052701;28;20036;-50
2022/02/05 08:22:42;;;;;;;26.05;13.40;;;;;;;7.98;45.05;99947.66;5052855;28;20483;-52
2022/02/05 08:25:08;;;;;;;26.05;13.10;;;;;;;8.25;44.18;99944.56;5052998;28;20025;-49
2022/02/05 08:27:34;;;;;;;24.65;13.70;;;;;;;8.43;43.78;99947.69;5053082;28;20048;-49
2022/02/05 08:30:05;;;;;;;25.20;13.10;;;;;;;7.95;44.50;99955.16;5053158;28;20049;-49
2022/02/05 08:32:30;;;;;;;20.17;12.25;;;;;;;7.85;44.95;99957.25;5053260;28;20040;-50
2022/02/05 08:35:00;;;;;;;30.58;16.52;;;;;;;8.27;44.16;99943.38;5053498;28;20021;-50
2022/02/05 08:37:30;;;;;;;22.27;12.90;;;;;;;8.13;45.00;99947.66;5053066;28;20128;-49
2022/02/05 08:39:55;;;;;;;27.48;14.13;;;;;;;8.36;44.31;99947.56;5053225;28;20039;-50
2022/02/05 08:42:21;;;;;;;29.73;13.85;;;;;;;8.54;44.90;99944.56;5051224;28;20033;-48
2022/02/05 08:44:46;;;;;;;61.75;32.50;;;;;;;9.62;42.36;99936.66;5052645;28;20032;-50
2022/02/05 08:47:12;;;;;;;28.15;14.60;;;;;;;9.77;41.65;99950.69;5052544;28;20417;-51
2022/02/05 08:49:37;;;;;;;24.48;13.73;;;;;;;9.71;41.45;99940.00;5052408;28;20024;-50
2022/02/05 08:52:06;;;;;;;25.67;13.20;;;;;;;9.61;41.47;99953.59;5044195;28;20029;-50
2022/02/05 08:54:32;;;;;;;23.73;13.15;;;;;;;8.97;42.60;99957.91;5032497;28;20428;-50
2022/02/05 08:56:58;;;;;;;27.27;14.52;;;;;;;9.00;42.54;99954.91;5032975;28;20025;-48
2022/02/05 08:59:24;;;;;;;23.50;14.15;;;;;;;9.56;41.57;99950.72;5032675;28;20406;-49
2022/02/05 09:02:04;;;;;;;28.02;13.82;;;;;;;9.51;40.99;99950.47;5031274;28;20105;-49
2022/02/05 09:05:36;;;;;;;26.92;13.52;;;;;;;9.39;41.49;99948.31;5031982;28;20101;-50
2022/02/05 09:07:24;;;;;;;24.10;13.63;;;;;;;9.38;41.35;99940.53;5023195;28;20044;-48
2022/02/05 09:14:58;;;;;;;21.80;12.93;;;;;;;9.31;41.87;99921.91;5052205;28;20386;-48
2022/02/05 09:17:24;;;;;;;22.85;11.98;;;;;;;9.50;41.17;99927.56;5052060;28;20028;-52
2022/02/05 09:19:50;;;;;;;20.15;12.35;;;;;;;9.61;41.11;99932.34;5052135;28;20032;-50
2022/02/05 09:22:16;;;;;;;21.60;11.80;;;;;;;9.67;39.65;99922.78;5052085;28;20025;-47
2022/02/05 09:24:41;;;;;;;20.85;12.50;;;;;;;9.51;40.14;99929.22;5052161;28;20098;-49
2022/02/05 09:27:10;;;;;;;20.20;11.95;;;;;;;9.36;41.27;99927.44;5051753;28;20047;-48
2022/02/05 09:30:14;;;;;;;20.25;12.27;;;;;;;8.78;42.43;99924.03;5050341;28;20104;-49
2022/02/05 09:32:27;;;;;;;;;;;;;;;8.88;42.83;99919.22;5051176;28;20044;-52
2022/02/05 09:34:53;;;;;;;18.27;11.95;;;;;;;9.33;42.19;99909.25;5051584;28;19913;-52
2022/02/05 09:37:19;;;;;;;18.58;11.60;;;;;;;9.44;41.75;99912.41;5051620;28;20412;-51
2022/02/05 09:39:44;;;;;;;22.50;12.35;;;;;;;9.46;42.30;99919.19;5051693;28;20029;-50
2022/02/05 09:42:13;;;;;;;18.58;11.50;;;;;;;9.53;41.71;99922.69;5051412;28;20032;-49
2022/02/05 09:44:39;;;;;;;22.83;12.50;;;;;;;9.60;41.82;99912.13;5051492;28;20029;-49
2022/02/05 09:47:05;;;;;;;22.48;13.45;;;;;;;9.54;41.50;99908.41;5051542;28;20083;-49
2022/02/05 09:49:30;;;;;;;27.30;13.68;;;;;;;9.43;41.94;99916.09;5049602;28;20025;-48
2022/02/05 09:52:12;;;;;;;23.77;13.15;;;;;;;9.41;42.26;99918.09;5051429;28;20024;-48
2022/02/05 09:54:39;;;;;;;21.30;12.50;;;;;;;9.39;42.25;99916.44;5051443;28;20041;-47
2022/02/05 09:57:05;;;;;;;21.80;12.70;;;;;;;9.29;42.51;99912.47;5051100;28;20036;-51
2022/02/05 09:59:40;;;;;;;22.63;12.88;;;;;;;9.18;42.53;99908.50;5050892;28;20028;-49
2022/02/05 10:02:32;;;;;;;22.45;13.98;;;;;;;9.30;42.29;99903.50;5050638;28;20052;-50
2022/02/05 10:05:06;;;;;;;24.35;14.10;;;;;;;9.37;42.93;99901.72;5051036;28;20492;-51
2022/02/05 10:07:32;;;;;;;36.33;19.30;;;;;;;9.30;43.13;99893.69;5050877;28;20043;-49
2022/02/05 10:10:05;;;;;;;26.30;14.32;;;;;;;9.45;42.66;99890.97;5049288;28;20049;-48
2022/02/05 10:12:31;;;;;;;26.33;14.10;;;;;;;9.22;43.72;99901.00;5049896;28;20032;-52
2022/02/05 10:14:57;;;;;;;25.80;14.65;;;;;;;9.18;43.16;99887.28;5050086;28;20028;-49
2022/02/05 10:17:44;;;;;;;24.60;14.73;;;;;;;9.47;43.78;99877.50;5050965;28;20021;-49
2022/02/05 10:20:11;;;;;;;27.17;15.82;;;;;;;9.63;42.34;99871.06;5050661;28;20104;-50
2022/02/05 10:22:47;;;;;;;25.40;14.88;;;;;;;9.78;42.73;99875.22;5050963;28;20033;-52
2022/02/05 10:25:24;;;;;;;22.90;14.88;;;;;;;9.72;43.75;99865.38;5050190;28;20464;-49
2022/02/05 10:27:50;;;;;;;25.17;14.13;;;;;;;9.60;43.82;99874.94;5050407;28;20021;-49
2022/02/05 10:30:24;;;;;;;25.48;14.90;;;;;;;9.82;43.51;99869.53;5049979;28;20485;-51
2022/02/05 10:33:10;;;;;;;25.55;14.10;;;;;;;9.82;43.33;99872.19;5048816;28;20060;-48
2022/02/05 10:35:54;;;;;;;23.00;13.10;;;;;;;9.78;43.60;99874.41;5050572;28;20116;-47
2022/02/05 10:43:53;;;;;;;26.33;14.18;;;;;;;9.42;44.33;99858.66;5049978;28;20082;-50
2022/02/05 10:46:19;;;;;;;27.38;14.02;;;;;;;9.47;45.02;99859.72;5050409;28;20029;-39
2022/02/05 10:48:45;;;;;;;23.13;13.10;;;;;;;10.27;42.55;99851.38;5050392;28;20043;-39
2022/02/05 10:51:10;;;;;;;20.27;11.98;;;;;;;10.31;43.31;99855.28;5049438;28;20036;-39
2022/02/05 11:07:21;;;;;;;17.35;11.45;;;;;;;9.58;45.24;99837.91;5008372;28;20113;-39
2022/02/05 11:09:48;;;;;;;18.23;11.00;;;;;;;10.13;44.42;99830.03;5037905;28;20533;-38
2022/02/05 11:20:24;;;;;;;21.60;13.20;;;;;;;10.68;43.03;99807.91;5049827;28;20360;-37
2022/02/05 11:23:00;;;;;;;20.35;12.27;;;;;;;10.64;42.83;99804.00;5049895;28;20033;-37
2022/02/05 11:25:32;;;;;;;17.70;12.07;;;;;;;11.84;40.94;99801.25;5048076;28;20059;-37
2022/02/05 11:27:57;;;;;;;18.17;11.70;;;;;;;11.22;41.96;99798.09;5052348;28;20465;-38
2022/02/05 11:30:47;;;;;;;17.40;12.00;;;;;;;11.09;41.15;99794.41;5053888;28;20020;-37
2022/02/05 11:33:20;;;;;;;17.00;11.77;;;;;;;10.96;42.16;99792.56;5054141;28;20025;-39
2022/02/05 11:36:19;;;;;;;22.40;12.88;;;;;;;11.03;41.97;99781.94;5053582;28;20114;-37
2022/02/05 11:38:34;;;;;;;19.63;11.80;;;;;;;11.93;39.76;99789.34;5052723;28;20036;-38
2022/02/05 11:41:00;;;;;;;21.95;14.10;;;;;;;12.10;39.94;99781.69;5053554;28;20025;-38
2022/02/05 11:43:29;;;;;;;23.10;13.80;;;;;;;11.66;41.38;99777.94;5053573;28;20538;-37
2022/02/05 11:46:04;;;;;;;;;;;;;;;11.93;40.24;99774.16;5054000;28;20485;-39
2022/02/05 11:48:55;;;;;;;28.17;15.20;;;;;;;11.60;42.12;99768.94;5053680;28;19966;-39
2022/02/05 11:51:26;;;;;;;21.30;13.52;;;;;;;11.61;41.27;99770.56;5051306;28;20021;-39
2022/02/05 11:53:55;;;;;;;21.73;13.30;;;;;;;11.39;42.21;99759.34;5033770;28;20033;-39
2022/02/05 11:56:21;;;;;;;22.77;14.43;;;;;;;11.47;42.22;99755.66;5033521;28;20037;-38
2022/02/05 11:58:57;;;;;;;23.85;14.80;;;;;;;11.83;41.54;99749.78;5033239;28;20343;-38
2022/02/05 12:01:36;;;;;;;23.60;14.27;;;;;;;11.95;41.13;99752.63;5033837;28;20045;-38
2022/02/05 12:04:17;;;;;;;25.00;15.20;;;;;;;12.00;41.26;99749.34;5033497;28;20095;-39
2022/02/05 12:06:49;;;;;;;23.05;14.38;;;;;;;11.95;41.09;99746.47;5033516;28;20116;-39
2022/02/05 12:09:37;;;;;;;24.27;14.43;;;;;;;12.05;41.64;99746.84;5045455;28;20048;-39
2022/02/05 12:12:26;;;;;;;23.88;14.07;;;;;;;12.31;40.76;99752.03;5053067;28;20098;-38
2022/02/05 12:15:22;;;;;;;24.33;14.15;;;;;;;12.22;39.90;99758.66;5053394;28;20072;-38
2022/02/05 12:20:26;;;;;;;25.15;14.15;;;;;;;11.55;42.16;99758.06;5053038;28;20507;-39
2022/02/05 12:25:53;;;;;;;24.63;13.95;;;;;;;12.69;39.27;99753.00;5053132;28;20493;-39
2022/02/05 12:28:33;;;;;;;20.00;13.52;;;;;;;12.33;40.02;99757.97;5052074;28;20059;-38
2022/02/05 12:31:00;;;;;;;22.88;14.70;;;;;;;12.43;39.47;99756.69;5053273;28;20108;-38
2022/02/05 12:33:47;;;;;;;22.17;13.55;;;;;;;12.46;40.02;99762.41;5053422;28;20083;-39
2022/02/05 12:36:13;;;;;;;21.42;14.00;;;;;;;12.64;39.17;99752.84;5053159;28;20029;-38
2022/02/05 12:38:42;;;;;;;24.77;13.68;;;;;;;12.71;39.02;99753.59;5052326;28;20029;-38
2022/02/05 12:41:07;;;;;;;23.35;13.90;;;;;;;12.82;38.77;99742.22;5052769;28;20111;-39
2022/02/05 12:43:53;;;;;;;21.30;13.65;;;;;;;12.78;38.90;99738.38;5052972;28;20115;-38
2022/02/05 12:46:19;;;;;;;21.30;13.38;;;;;;;12.73;38.79;99750.72;5052394;28;20029;-39
2022/02/05 12:48:48;;;;;;;20.17;12.63;;;;;;;12.75;38.98;99749.47;5052656;28;20037;-38
2022/02/05 12:51:13;;;;;;;22.60;14.02;;;;;;;12.58;39.44;99743.84;5052084;28;20029;-38
2022/02/05 12:53:40;;;;;;;23.80;13.80;;;;;;;12.41;39.86;99734.72;5052552;28;20121;-38
2022/02/05 12:56:19;;;;;;;22.25;13.63;;;;;;;12.38;41.25;99738.66;5052062;28;20451;-39
2022/02/05 12:58:54;;;;;;;21.33;13.25;;;;;;;12.60;40.17;99731.09;5052243;28;20493;-39
2022/02/05 13:01:20;;;;;;;23.85;13.73;;;;;;;12.61;40.10;99726.59;5052525;28;20025;-38
2022/02/05 13:03:45;;;;;;;23.05;14.15;;;;;;;12.51;40.67;99727.88;5052259;28;20025;-39
2022/02/05 13:06:20;;;;;;;23.52;13.55;;;;;;;12.61;40.14;99729.25;5052045;28;20025;-39
2022/02/05 13:08:50;;;;;;;21.77;12.57;;;;;;;12.38;40.64;99730.66;5052293;28;20050;-40
2022/02/05 13:11:26;;;;;;;21.45;13.23;;;;;;;12.76;40.23;99726.28;5051726;28;20053;-38
2022/02/05 13:13:53;;;;;;;22.00;12.57;;;;;;;12.71;40.24;99722.38;5050871;28;20516;-39
2022/02/05 13:16:23;;;;;;;22.05;13.55;;;;;;;12.80;39.85;99719.47;5052063;28;20036;-37
2022/02/05 13:19:06;;;;;;;19.65;13.00;;;;;;;13.04;39.03;99728.47;5050834;28;20454;-39
2022/02/05 13:27:45;;;;;;;26.02;13.85;;;;;;;12.95;39.81;99719.13;5032558;28;20103;-38
2022/02/05 13:36:07;;;;;;;20.33;13.07;;;;;;;12.93;39.64;99719.34;5051592;28;20087;-38
2022/02/05 13:38:50;;;;;;;20.92;13.38;;;;;;;13.00;39.38;99716.59;5051686;28;20098;-38
2022/02/05 13:41:16;;;;;;;24.55;13.55;;;;;;;13.03;38.82;99718.84;5051880;28;20060;-39
2022/02/05 13:43:57;;;;;;;23.10;13.45;;;;;;;13.02;39.52;99717.19;5051862;28;20484;-38
2022/02/05 13:46:23;;;;;;;25.92;13.98;;;;;;;13.22;39.16;99717.00;5051863;28;20111;-38
2022/02/05 13:48:48;;;;;;;22.70;13.35;;;;;;;12.95;39.27;99727.16;5051813;28;20025;-39
2022/02/05 13:51:16;;;;;;;25.48;14.00;;;;;;;12.91;39.15;99727.56;5048819;28;20489;-38
2022/02/05 13:53:55;;;;;;;26.80;14.43;;;;;;;12.94;39.33;99720.16;5031214;28;20374;-39
2022/02/05 13:56:21;;;;;;;24.63;13.83;;;;;;;12.38;41.52;99719.16;5031481;28;20021;-39
2022/02/05 13:58:47;;;;;;;22.30;12.48;;;;;;;12.35;42.24;99716.91;5031656;28;20048;-38
2022/02/05 14:01:34;;;;;;;23.60;12.93;;;;;;;12.05;43.79;99728.16;5031544;28;20017;-38
2022/02/05 14:04:19;;;;;;;23.35;13.25;;;;;;;12.16;43.34;99740.00;5031516;28;20044;-38
2022/02/05 14:06:51;;;;;;;25.00;12.45;;;;;;;12.40;42.75;99738.44;5031440;28;20186;-38
2022/02/05 14:09:22;;;;;;;19.10;13.20;;;;;;;12.41;42.73;99738.22;5044018;28;20035;-38
2022/02/05 14:11:47;;;;;;;22.65;12.82;;;;;;;11.96;43.52;99737.47;5051554;28;20029;-39
2022/02/05 14:14:20;;;;;;;28.88;13.85;;;;;;;12.09;42.67;99737.41;5049897;28;20056;-39
2022/02/05 14:16:46;;;;;;;21.80;13.57;;;;;;;11.83;43.42;99741.78;5049807;28;20430;-38
2022/02/05 14:19:25;;;;;;;22.73;13.48;;;;;;;12.05;43.97;99739.66;5046858;28;20437;-38
2022/02/05 14:21:52;;;;;;;19.08;12.63;;;;;;;11.90;44.42;99733.81;5032807;28;20044;-38
2022/02/05 14:24:30;;;;;;;21.45;11.15;;;;;;;11.78;44.27;99741.59;5031572;28;20064;-38
2022/02/05 14:27:18;;;;;;;20.73;12.55;;;;;;;11.76;45.18;99740.16;5041384;28;20033;-38
2022/02/05 14:32:52;;;;;;;23.27;14.90;;;;;;;11.73;45.63;99752.91;5046220;28;20033;-38
2022/02/05 14:40:46;;;;;;;21.58;12.73;;;;;;;11.61;45.81;99751.91;5051474;28;20039;-38
2022/02/05 14:43:13;;;;;;;21.17;12.30;;;;;;;11.37;47.33;99744.59;5051257;28;20029;-38
2022/02/05 14:45:39;;;;;;;22.73;13.10;;;;;;;11.33;47.44;99752.19;5049763;28;20090;-38
2022/02/05 14:48:04;;;;;;;24.23;12.93;;;;;;;11.28;46.96;99750.13;5030326;28;20385;-38